Time;durP1;ratioP1;P1;durP2;ratioP2;P2;SDS_P1;SDS_P2;PMS_P1;PMS_P2;Temp;Humidity;BMP_temperature;BMP_pressure;BME280_temperature;BME280_humidity;BME280_pressure;Samples;Min_cycle;Max_cycle;Signal;HPM_P1;HPM_P2
2021/09/24 00:02:21;;;;;;;7.60;4.80;;;;;;;12.09;58.85;100471.95;117296;1185;21851;-60
2021/09/24 00:04:50;;;;;;;6.60;4.90;;;;;;;12.09;58.90;100467.91;117402;1181;22987;-60
2021/09/24 00:07:19;;;;;;;7.10;4.90;;;;;;;12.14;58.82;100465.70;117313;1186;24160;-60
2021/09/24 00:09:47;;;;;;;7.00;4.90;;;;;;;12.17;58.70;100465.63;117269;1183;21855;-60
2021/09/24 00:12:35;;;;;;;5.80;4.10;;;;;;;12.20;58.68;100462.79;117373;1185;21869;-60
2021/09/24 00:15:04;;;;;;;6.30;4.60;;;;;;;12.21;58.81;100459.77;117308;1182;23541;-59
2021/09/24 00:17:52;;;;;;;5.80;4.70;;;;;;;12.24;58.76;100462.54;117271;1189;21871;-59
2021/09/24 00:20:23;;;;;;;6.40;5.30;;;;;;;12.24;58.71;100462.02;117287;1186;23095;-59
2021/09/24 00:23:11;;;;;;;7.60;5.30;;;;;;;12.25;58.81;100459.54;117351;1186;21879;-60
2021/09/24 00:25:39;;;;;;;7.00;5.30;;;;;;;12.25;58.80;100455.49;117347;1185;24012;-59
2021/09/24 00:28:19;;;;;;;8.90;5.40;;;;;;;12.24;58.88;100452.34;117343;1183;23566;-59
2021/09/24 00:31:07;;;;;;;7.70;5.20;;;;;;;12.25;58.79;100451.64;117360;1185;21847;-59
2021/09/24 00:33:35;;;;;;;7.50;5.10;;;;;;;12.24;58.74;100448.64;117281;1182;22844;-59
2021/09/24 00:36:04;;;;;;;7.40;5.20;;;;;;;12.24;58.76;100451.28;117275;1182;23577;-59
2021/09/24 00:38:38;;;;;;;8.30;5.50;;;;;;;12.25;58.77;100450.58;117306;1186;23544;-59
2021/09/24 00:41:08;;;;;;;7.60;5.40;;;;;;;12.24;58.90;100447.95;117307;1183;23660;-60
2021/09/24 00:43:37;;;;;;;8.00;5.60;;;;;;;12.22;58.84;100449.73;117368;1183;23544;-60
2021/09/24 00:46:07;;;;;;;8.20;5.50;;;;;;;12.21;58.95;100445.35;117362;1185;23554;-59
2021/09/24 00:48:47;;;;;;;7.80;5.60;;;;;;;12.19;58.73;100444.67;117280;1183;23725;-59
2021/09/24 00:51:15;;;;;;;10.50;6.30;;;;;;;12.18;58.77;100438.72;117410;1185;23643;-59
2021/09/24 00:53:45;;;;;;;8.20;6.10;;;;;;;12.17;58.76;100433.46;117263;1186;23871;-59
2021/09/24 00:56:14;;;;;;;7.50;5.70;;;;;;;12.19;58.74;100430.45;117296;1185;23531;-59
2021/09/24 00:58:42;;;;;;;7.50;5.90;;;;;;;12.22;58.98;100427.92;117352;1185;21858;-59
2021/09/24 01:01:30;;;;;;;9.20;6.50;;;;;;;12.24;58.89;100426.66;117274;1189;21968;-59
2021/09/24 01:04:18;;;;;;;8.30;6.40;;;;;;;12.26;58.95;100423.81;117286;1185;21856;-59
2021/09/24 01:06:47;;;;;;;8.70;6.00;;;;;;;12.27;58.82;100421.86;117376;1183;22886;-60
2021/09/24 01:09:15;;;;;;;8.10;6.50;;;;;;;12.28;58.81;100420.79;117129;1186;21846;-60
2021/09/24 01:11:44;;;;;;;8.80;6.50;;;;;;;12.28;58.80;100417.08;117193;1189;21855;-60
2021/09/24 01:14:13;;;;;;;7.80;5.80;;;;;;;12.29;58.71;100414.96;117308;1185;21858;-60
2021/09/24 01:16:44;;;;;;;7.90;6.00;;;;;;;12.29;58.94;100413.02;117324;1185;23557;-60
2021/09/24 01:19:12;;;;;;;8.50;6.30;;;;;;;12.29;58.83;100411.61;117307;1182;23438;-60
2021/09/24 01:21:59;;;;;;;7.50;5.80;;;;;;;12.29;58.68;100408.80;117294;1185;21865;-59
2021/09/24 01:24:27;;;;;;;8.00;6.00;;;;;;;12.29;58.71;100406.16;117362;1185;24126;-60
2021/09/24 01:26:56;;;;;;;7.80;6.30;;;;;;;12.28;58.88;100403.89;117331;1182;23439;-60
2021/09/24 01:29:36;;;;;;;8.40;6.00;;;;;;;12.25;58.75;100403.41;117408;1185;23542;-60
2021/09/24 01:32:06;;;;;;;8.00;6.00;;;;;;;12.24;58.73;100401.52;117327;1182;23541;-59
2021/09/24 01:34:34;;;;;;;6.90;6.10;;;;;;;12.22;58.77;100395.20;117316;1182;23555;-59
2021/09/24 01:37:03;;;;;;;8.30;6.20;;;;;;;12.21;58.68;100393.48;117267;1185;21855;-59
2021/09/24 01:39:32;;;;;;;7.90;6.20;;;;;;;12.21;58.65;100387.84;117296;1185;21866;-60
2021/09/24 01:42:02;;;;;;;8.10;6.40;;;;;;;12.19;58.76;100382.22;117418;1176;23627;-59
2021/09/24 01:44:34;;;;;;;7.50;6.40;;;;;;;12.20;58.73;100381.52;117406;1179;23694;-60
2021/09/24 01:47:03;;;;;;;8.30;6.10;;;;;;;12.18;58.69;100380.84;117359;1182;23438;-60
2021/09/24 01:49:31;;;;;;;9.80;5.80;;;;;;;12.17;58.70;100381.91;117436;1183;21931;-59
2021/09/24 01:51:59;;;;;;;9.50;6.30;;;;;;;12.16;58.61;100374.38;117277;1185;21902;-59
2021/09/24 01:54:28;;;;;;;9.30;6.30;;;;;;;12.15;58.57;100376.34;117280;1183;23545;-60
2021/09/24 01:57:02;;;;;;;7.80;6.00;;;;;;;12.13;58.58;100373.74;117309;1186;23542;-60
2021/09/24 01:59:44;;;;;;;7.30;6.00;;;;;;;12.10;58.58;100371.14;117283;1183;23009;-60
2021/09/24 02:02:12;;;;;;;10.10;7.10;;;;;;;12.10;58.78;100365.36;117257;1188;21844;-59
2021/09/24 02:04:42;;;;;;;20.10;10.10;;;;;;;12.09;58.73;100356.93;117269;1186;23542;-59
2021/09/24 02:07:10;;;;;;;17.70;10.70;;;;;;;12.09;58.67;100351.30;117386;1185;23554;-56
2021/09/24 02:09:39;;;;;;;11.20;7.30;;;;;;;12.09;58.58;100353.93;117319;1183;24185;-60
2021/09/24 02:12:08;;;;;;;10.30;7.30;;;;;;;12.08;58.72;100347.80;117292;1186;23543;-60
2021/09/24 02:14:36;;;;;;;9.90;6.90;;;;;;;12.04;58.59;100339.77;117286;1184;24169;-60
2021/09/24 02:17:09;;;;;;;7.90;6.00;;;;;;;11.99;58.72;100333.35;117255;1185;23659;-59
2021/09/24 02:19:57;;;;;;;8.20;6.70;;;;;;;11.96;58.74;100329.52;117269;1185;22914;-60
2021/09/24 02:22:32;;;;;;;10.90;6.60;;;;;;;11.96;58.61;100327.06;117295;1182;23542;-60
2021/09/24 02:25:20;;;;;;;7.70;6.00;;;;;;;11.96;58.56;100323.35;117311;1185;21855;-59
2021/09/24 02:27:49;;;;;;;8.70;6.30;;;;;;;11.95;58.72;100314.75;117488;1183;23544;-60
2021/09/24 02:30:19;;;;;;;8.80;7.00;;;;;;;11.94;58.65;100308.63;117190;1186;23569;-60
2021/09/24 02:33:08;;;;;;;8.10;6.10;;;;;;;11.92;58.53;100303.41;117306;1186;22966;-60
2021/09/24 02:35:36;;;;;;;7.40;5.70;;;;;;;11.90;58.58;100299.58;117325;1185;23557;-59
2021/09/24 02:38:05;;;;;;;7.70;6.20;;;;;;;11.90;58.82;100297.65;117353;1183;23448;-60
2021/09/24 02:40:33;;;;;;;8.30;6.00;;;;;;;11.88;58.68;100294.68;117318;1185;21868;-60
2021/09/24 02:43:01;;;;;;;7.60;6.20;;;;;;;11.90;58.48;100293.60;117267;1182;23453;-60
2021/09/24 02:45:30;;;;;;;8.40;6.30;;;;;;;11.89;58.78;100292.73;117420;1183;23823;-60
2021/09/24 02:47:58;;;;;;;8.60;6.40;;;;;;;11.90;58.63;100291.65;117286;1183;21857;-59
2021/09/24 02:50:31;;;;;;;9.40;6.20;;;;;;;11.87;58.56;100294.52;117318;1182;23570;-59
2021/09/24 02:53:19;;;;;;;8.60;6.80;;;;;;;11.85;58.54;100297.20;117313;1185;22956;-60
2021/09/24 02:55:48;;;;;;;8.70;6.20;;;;;;;11.81;58.42;100296.21;117297;1183;23566;-60
2021/09/24 02:58:24;;;;;;;7.20;5.80;;;;;;;11.77;58.50;100297.52;117319;1181;23535;-60
2021/09/24 03:00:54;;;;;;;8.40;6.20;;;;;;;11.71;58.51;100295.69;117260;1186;23721;-59
2021/09/24 03:03:29;;;;;;;8.60;6.10;;;;;;;11.64;58.42;100295.11;117282;1179;23541;-59
2021/09/24 03:05:58;;;;;;;8.40;6.10;;;;;;;11.60;58.34;100294.14;117382;1182;22721;-60
2021/09/24 03:08:46;;;;;;;9.10;6.00;;;;;;;11.54;58.50;100290.90;117293;1185;21855;-60
2021/09/24 03:11:14;;;;;;;9.70;6.20;;;;;;;11.48;58.46;100288.03;117290;1186;22640;-59
2021/09/24 03:14:00;;;;;;;9.20;6.50;;;;;;;11.42;58.42;100288.14;117308;1184;23567;-60
2021/09/24 03:16:28;;;;;;;7.90;6.50;;;;;;;11.37;58.46;100284.35;117325;1185;22802;-59
2021/09/24 03:19:20;;;;;;;7.70;6.10;;;;;;;11.30;58.44;100276.72;117318;1189;21857;-59
2021/09/24 03:21:52;;;;;;;7.40;5.70;;;;;;;11.25;58.45;100274.36;117271;1185;21880;-60
2021/09/24 03:24:20;;;;;;;9.30;5.80;;;;;;;11.21;58.53;100269.34;117476;1183;23439;-60
2021/09/24 03:27:08;;;;;;;6.80;5.30;;;;;;;11.17;58.44;100263.96;117300;1185;21885;-60
2021/09/24 03:29:37;;;;;;;7.30;6.10;;;;;;;11.12;58.51;100255.59;117309;1186;22812;-60
2021/09/24 03:32:06;;;;;;;9.40;6.20;;;;;;;11.09;58.51;100254.59;117287;1186;21867;-60
2021/09/24 03:34:34;;;;;;;7.20;5.70;;;;;;;11.09;58.53;100252.13;117380;1188;21857;-60
2021/09/24 03:37:03;;;;;;;7.40;5.70;;;;;;;11.07;58.51;100255.14;117313;1183;23544;-60
2021/09/24 03:39:31;;;;;;;10.50;5.50;;;;;;;11.08;58.60;100251.28;117356;1185;21855;-60
2021/09/24 03:41:59;;;;;;;7.20;5.50;;;;;;;11.09;58.64;100251.27;117264;1182;23544;-59
2021/09/24 03:44:30;;;;;;;9.90;5.70;;;;;;;11.12;58.81;100247.52;117265;1176;23650;-60
2021/09/24 03:46:59;;;;;;;9.70;5.50;;;;;;;11.16;58.77;100245.70;117351;1185;23008;-59
2021/09/24 03:49:28;;;;;;;8.40;6.00;;;;;;;11.23;58.82;100249.12;117316;1184;21932;-56
2021/09/24 03:51:58;;;;;;;9.40;5.80;;;;;;;11.27;58.59;100248.50;117321;1186;21852;-56
2021/09/24 03:54:46;;;;;;;10.50;6.20;;;;;;;11.31;58.72;100256.69;117234;1185;21891;-56
2021/09/24 03:57:15;;;;;;;7.90;5.70;;;;;;;11.35;58.78;100252.77;117276;1182;21865;-57
2021/09/24 03:59:43;;;;;;;9.40;6.70;;;;;;;11.38;58.77;100243.92;117340;1183;23473;-56
2021/09/24 04:02:11;;;;;;;10.50;6.60;;;;;;;11.41;58.55;100242.11;117348;1183;21859;-56
2021/09/24 04:04:40;;;;;;;9.70;6.40;;;;;;;11.44;58.53;100248.20;117370;1185;24149;-57
2021/09/24 04:07:08;;;;;;;12.00;6.40;;;;;;;11.47;58.66;100249.76;117338;1182;23563;-56
2021/09/24 04:09:37;;;;;;;8.30;5.90;;;;;;;11.50;58.63;100242.66;117309;1184;21855;-56
2021/09/24 04:12:07;;;;;;;8.00;5.80;;;;;;;11.53;58.69;100233.64;117345;1182;23566;-56
2021/09/24 04:14:55;;;;;;;9.20;6.00;;;;;;;11.57;58.57;100233.56;117222;1186;22324;-56
2021/09/24 04:17:24;;;;;;;10.20;6.00;;;;;;;11.59;58.53;100223.86;117329;1182;22922;-56
2021/09/24 04:19:56;;;;;;;12.00;6.30;;;;;;;11.62;58.59;100223.98;117280;1185;23531;-56
2021/09/24 04:22:25;;;;;;;7.90;6.40;;;;;;;11.63;58.72;100220.45;117373;1183;21901;-60
2021/09/24 04:24:53;;;;;;;6.50;5.10;;;;;;;11.65;58.67;100219.70;117374;1183;22612;-60
2021/09/24 04:27:21;;;;;;;8.30;5.50;;;;;;;11.67;58.52;100219.84;117375;1185;23544;-60
2021/09/24 04:29:58;;;;;;;7.80;5.70;;;;;;;11.68;58.51;100219.13;117255;1185;23547;-60
2021/09/24 04:32:26;;;;;;;7.30;5.30;;;;;;;11.72;58.69;100220.10;119353;1185;21824;-60
2021/09/24 04:34:55;;;;;;;9.80;5.90;;;;;;;11.68;58.92;100211.57;117582;1183;21858;-59
2021/09/24 04:37:23;;;;;;;9.10;5.40;;;;;;;11.67;58.96;100197.19;117358;1185;23544;-60
2021/09/24 04:39:53;;;;;;;7.00;5.30;;;;;;;11.69;58.91;100196.10;117275;1182;21864;-60
2021/09/24 04:42:21;;;;;;;7.10;5.50;;;;;;;11.70;58.82;100206.79;117366;1182;23557;-60
2021/09/24 04:44:50;;;;;;;10.90;5.10;;;;;;;11.70;58.89;100202.39;117289;1182;22170;-60
2021/09/24 04:47:18;;;;;;;9.40;5.60;;;;;;;11.70;58.91;100200.80;117206;1185;21877;-60
2021/09/24 04:49:46;;;;;;;9.70;5.10;;;;;;;11.71;59.11;100208.52;117179;1185;23441;-60
2021/09/24 04:52:15;;;;;;;6.50;4.80;;;;;;;11.73;59.06;100205.84;117284;1182;23540;-60
2021/09/24 04:54:43;;;;;;;8.40;5.40;;;;;;;11.78;59.00;100218.94;117285;1183;22919;-60
2021/09/24 04:57:31;;;;;;;13.00;5.30;;;;;;;11.81;59.06;100220.26;117229;1185;22870;-59
2021/09/24 05:00:00;;;;;;;7.30;4.90;;;;;;;11.87;59.18;100216.29;117429;1185;23576;-59
2021/09/24 05:02:28;;;;;;;7.00;5.10;;;;;;;11.91;59.04;100213.23;117290;1184;23465;-59
2021/09/24 05:04:57;;;;;;;7.60;5.20;;;;;;;11.95;59.05;100204.17;117326;1185;23541;-60
2021/09/24 05:07:25;;;;;;;6.90;4.90;;;;;;;12.00;59.06;100196.36;117268;1184;22795;-60
2021/09/24 05:09:59;;;;;;;7.00;5.00;;;;;;;12.06;59.05;100189.73;117279;1182;23373;-60
2021/09/24 05:12:47;;;;;;;6.80;5.10;;;;;;;12.11;59.06;100193.69;117287;1188;22323;-59
2021/09/24 05:15:16;;;;;;;5.90;4.80;;;;;;;12.14;59.11;100194.84;117328;1189;21862;-59
2021/09/24 05:18:06;;;;;;;6.20;4.40;;;;;;;12.17;59.13;100197.55;117314;1185;22886;-59
2021/09/24 05:20:44;;;;;;;;;;;;;;;12.20;59.24;100191.00;117365;1186;21839;-60
2021/09/24 05:23:32;;;;;;;11.40;4.60;;;;;;;12.24;59.13;100193.38;117300;1181;21860;-59
2021/09/24 05:26:08;;;;;;;6.20;4.10;;;;;;;12.28;59.17;100189.77;117291;1185;21863;-60
2021/09/24 05:28:57;;;;;;;7.00;5.00;;;;;;;12.33;59.27;100202.52;117317;1185;21988;-59
2021/09/24 05:31:25;;;;;;;7.40;5.00;;;;;;;12.39;59.19;100211.00;117298;1182;21967;-59
2021/09/24 05:33:54;;;;;;;12.40;5.00;;;;;;;12.45;59.11;100210.69;117263;1189;22321;-60
2021/09/24 05:36:22;;;;;;;8.20;5.50;;;;;;;12.49;59.25;100208.13;117288;1185;23566;-59
2021/09/24 05:38:51;;;;;;;6.50;4.60;;;;;;;12.53;59.12;100212.80;117249;1185;23605;-59
2021/09/24 05:41:39;;;;;;;8.10;4.20;;;;;;;12.58;59.22;100210.59;117270;1185;22966;-59
2021/09/24 05:44:07;;;;;;;6.10;4.40;;;;;;;12.61;59.22;100212.27;117218;1185;22820;-59
2021/09/24 05:46:35;;;;;;;6.70;4.20;;;;;;;12.63;59.11;100207.11;117182;1185;21902;-59
2021/09/24 05:49:05;;;;;;;6.60;4.40;;;;;;;12.66;59.19;100213.72;117295;1185;21855;-59
2021/09/24 05:51:33;;;;;;;7.30;4.60;;;;;;;12.68;59.16;100220.72;117443;1185;21859;-60
2021/09/24 05:54:01;;;;;;;6.20;4.50;;;;;;;12.71;59.14;100230.34;117341;1183;23569;-59
2021/09/24 05:56:29;;;;;;;6.20;4.30;;;;;;;12.74;59.23;100229.55;117040;1185;21859;-59
2021/09/24 05:58:58;;;;;;;6.80;4.20;;;;;;;12.77;59.16;100226.85;117420;1183;23539;-59
2021/09/24 06:01:26;;;;;;;13.10;5.10;;;;;;;12.81;59.17;100224.81;117269;1184;23550;-59
2021/09/24 06:03:54;;;;;;;8.10;4.90;;;;;;;12.84;59.08;100219.81;117246;1183;22523;-59
2021/09/24 06:06:22;;;;;;;7.80;5.10;;;;;;;12.85;59.06;100214.85;117276;1184;23463;-60
2021/09/24 06:09:05;;;;;;;8.20;4.90;;;;;;;12.86;59.19;100216.23;117295;1185;23542;-59
2021/09/24 06:11:33;;;;;;;9.60;5.50;;;;;;;12.88;59.14;100217.79;117321;1185;23466;-59
2021/09/24 06:14:02;;;;;;;10.30;5.90;;;;;;;12.89;59.06;100217.92;117286;1186;21859;-60
2021/09/24 06:16:50;;;;;;;11.50;5.30;;;;;;;12.94;58.98;100215.35;117254;1185;21859;-59
2021/09/24 06:19:18;;;;;;;10.00;5.60;;;;;;;12.98;59.08;100218.60;117243;1188;21870;-59
2021/09/24 06:22:07;;;;;;;10.80;5.90;;;;;;;13.01;59.06;100220.64;117227;1187;23638;-60
2021/09/24 06:24:36;;;;;;;11.00;6.90;;;;;;;13.02;58.96;100221.48;117289;1183;23460;-60
2021/09/24 06:27:10;;;;;;;8.60;5.50;;;;;;;13.06;59.11;100218.05;117386;1185;23466;-60
2021/09/24 06:29:38;;;;;;;9.50;5.10;;;;;;;13.09;59.17;100213.92;117256;1185;22978;-59
2021/09/24 06:32:07;;;;;;;7.80;4.80;;;;;;;13.12;59.14;100207.67;117288;1189;21898;-59
2021/09/24 06:34:35;;;;;;;8.90;4.70;;;;;;;13.17;59.20;100197.50;117370;1183;21858;-60
2021/09/24 06:37:03;;;;;;;6.20;4.20;;;;;;;13.23;59.22;100191.88;117284;1185;21856;-59
2021/09/24 06:39:32;;;;;;;6.60;4.50;;;;;;;13.32;59.35;100181.98;117326;1185;21865;-59
2021/09/24 06:42:00;;;;;;;8.20;5.00;;;;;;;13.42;59.40;100177.51;117336;1185;21872;-59
2021/09/24 06:44:28;;;;;;;11.00;4.80;;;;;;;13.53;59.49;100178.27;117301;1185;22908;-59
2021/09/24 06:46:56;;;;;;;6.60;4.80;;;;;;;13.62;59.42;100170.27;117352;1186;21848;-60
2021/09/24 06:49:25;;;;;;;7.30;4.10;;;;;;;13.72;59.41;100169.45;117327;1185;23571;-60
2021/09/24 06:51:55;;;;;;;5.70;3.80;;;;;;;13.79;59.45;100166.95;117251;1186;23541;-60
2021/09/24 06:54:24;;;;;;;6.50;4.20;;;;;;;13.87;59.38;100159.69;117286;1183;22975;-59
2021/09/24 06:56:52;;;;;;;11.50;4.50;;;;;;;13.91;59.38;100151.42;117374;1185;21864;-60
2021/09/24 06:59:21;;;;;;;11.00;4.00;;;;;;;13.95;59.38;100147.09;117331;1185;23554;-59
2021/09/24 07:01:49;;;;;;;5.90;4.20;;;;;;;14.00;59.36;100135.30;117297;1182;23551;-59
2021/09/24 07:04:17;;;;;;;6.10;3.50;;;;;;;14.06;59.33;100128.40;117070;1186;22631;-59
2021/09/24 07:06:46;;;;;;;5.50;3.30;;;;;;;14.20;59.50;100120.40;117251;1184;23487;-60
2021/09/24 07:09:16;;;;;;;5.00;3.40;;;;;;;14.42;59.77;100112.83;117283;1185;23637;-60
2021/09/24 07:11:48;;;;;;;6.10;3.70;;;;;;;14.66;59.88;100115.73;117284;1183;23451;-60
2021/09/24 07:14:18;;;;;;;7.40;3.80;;;;;;;14.87;59.78;100110.65;117292;1184;23464;-60
2021/09/24 07:16:47;;;;;;;;;;;;;;;14.99;59.63;100099.63;117362;1185;23006;-60
2021/09/24 07:19:16;;;;;;;6.40;3.20;;;;;;;15.08;59.54;100091.71;117331;1185;21902;-60
2021/09/24 07:21:45;;;;;;;8.20;3.90;;;;;;;15.16;59.50;100089.33;117323;1186;23547;-60
2021/09/24 07:24:13;;;;;;;13.10;4.20;;;;;;;15.22;59.53;100086.45;117340;1182;23589;-60
2021/09/24 07:26:42;;;;;;;5.70;3.80;;;;;;;15.32;59.55;100085.02;117321;1183;23544;-60
2021/09/24 07:29:11;;;;;;;8.40;3.40;;;;;;;15.47;59.35;100071.23;117340;1183;23567;-60
2021/09/24 07:31:39;;;;;;;4.40;2.90;;;;;;;15.51;59.44;100064.52;117228;1183;23558;-60
2021/09/24 07:34:08;;;;;;;8.90;3.00;;;;;;;15.58;59.51;100051.88;117311;1185;23531;-60
2021/09/24 07:36:36;;;;;;;5.30;3.10;;;;;;;15.68;59.48;100050.63;117287;1185;21858;-60
2021/09/24 07:39:04;;;;;;;6.40;3.60;;;;;;;15.79;59.45;100053.73;117317;1185;23566;-61
2021/09/24 07:41:32;;;;;;;6.50;3.60;;;;;;;15.91;59.40;100047.99;117388;1185;23566;-62
2021/09/24 07:44:03;;;;;;;6.10;3.40;;;;;;;15.99;59.38;100048.73;117400;1181;23647;-62
2021/09/24 07:46:32;;;;;;;7.80;3.60;;;;;;;16.09;59.33;100053.49;117325;1184;23532;-62
2021/09/24 07:49:02;;;;;;;8.50;4.00;;;;;;;16.20;59.42;100057.48;117341;1182;21925;-62
2021/09/24 07:51:30;;;;;;;6.10;3.60;;;;;;;16.34;59.41;100061.32;117337;1182;22812;-62
2021/09/24 07:54:02;;;;;;;6.00;3.40;;;;;;;16.47;59.36;100053.52;117223;1185;23554;-62
2021/09/24 07:56:30;;;;;;;5.90;3.50;;;;;;;16.56;59.33;100052.24;117366;1184;23448;-63
2021/09/24 07:58:58;;;;;;;4.70;3.00;;;;;;;16.64;59.36;100047.85;117304;1183;23534;-63
2021/09/24 08:01:26;;;;;;;5.60;3.60;;;;;;;16.72;59.33;100043.79;117272;1183;23448;-63
2021/09/24 08:03:55;;;;;;;7.30;3.40;;;;;;;16.77;59.29;100037.21;117409;1183;22645;-61
2021/09/24 08:06:26;;;;;;;5.20;2.90;;;;;;;16.80;59.25;100036.33;117327;1186;21859;-62
2021/09/24 08:08:57;;;;;;;4.80;3.00;;;;;;;16.81;58.99;100034.00;117280;1188;23653;-59
2021/09/24 08:11:25;;;;;;;5.80;3.50;;;;;;;16.75;58.93;100036.77;117321;1185;21857;-59
2021/09/24 08:13:53;;;;;;;5.00;3.60;;;;;;;16.62;58.71;100046.30;117297;1186;21859;-60
2021/09/24 08:16:21;;;;;;;6.10;3.30;;;;;;;16.48;58.52;100047.46;117383;1185;21858;-59
2021/09/24 08:19:09;;;;;;;5.00;3.50;;;;;;;16.32;58.47;100034.85;117274;1186;22985;-59
2021/09/24 08:21:37;;;;;;;5.60;4.00;;;;;;;16.20;58.61;100023.45;117378;1185;23541;-59
2021/09/24 08:24:06;;;;;;;5.90;4.10;;;;;;;16.12;58.64;100013.91;117383;1185;21854;-59
2021/09/24 08:26:34;;;;;;;7.30;4.00;;;;;;;16.03;58.83;99999.20;117303;1182;23545;-59
2021/09/24 08:29:02;;;;;;;7.30;3.60;;;;;;;15.98;58.87;99990.73;117288;1182;22614;-60
2021/09/24 08:31:32;;;;;;;5.00;3.40;;;;;;;16.01;58.92;99981.44;117388;1184;23585;-60
2021/09/24 08:34:01;;;;;;;6.00;3.90;;;;;;;15.99;58.99;99972.11;117310;1182;23569;-60
2021/09/24 08:36:30;;;;;;;6.00;3.40;;;;;;;16.01;59.03;99964.25;117347;1185;23535;-60
2021/09/24 08:39:00;;;;;;;5.40;4.10;;;;;;;16.03;59.05;99960.80;117337;1185;21868;-60
2021/09/24 08:41:29;;;;;;;6.40;3.60;;;;;;;16.04;59.09;99952.80;117375;1185;21859;-59
2021/09/24 08:43:58;;;;;;;5.70;4.00;;;;;;;16.05;59.03;99940.19;117316;1182;21992;-59
2021/09/24 08:46:26;;;;;;;6.20;3.90;;;;;;;16.07;58.97;99936.23;117359;1185;21863;-59
2021/09/24 08:48:55;;;;;;;5.30;3.90;;;;;;;16.09;58.96;99932.05;117305;1186;23580;-60
2021/09/24 08:51:26;;;;;;;5.40;3.80;;;;;;;16.10;58.98;99927.80;117341;1182;23534;-60
2021/09/24 08:53:55;;;;;;;6.50;4.20;;;;;;;16.12;58.99;99918.64;117316;1183;23544;-59
2021/09/24 08:56:23;;;;;;;5.00;3.60;;;;;;;16.16;59.11;99917.95;117327;1185;23436;-60
2021/09/24 08:58:51;;;;;;;6.30;4.00;;;;;;;16.22;59.05;99920.70;117363;1185;21860;-60
2021/09/24 09:01:19;;;;;;;6.90;4.00;;;;;;;16.28;59.12;99915.33;117417;1187;21855;-60
2021/09/24 09:03:48;;;;;;;5.60;4.20;;;;;;;16.36;59.18;99907.70;117391;1184;23582;-60
2021/09/24 09:06:18;;;;;;;7.20;4.20;;;;;;;16.44;59.16;99895.66;117323;1184;22916;-60
2021/09/24 09:08:46;;;;;;;5.20;3.60;;;;;;;16.50;59.10;99892.44;117354;1186;21858;-60
2021/09/24 09:11:19;;;;;;;7.00;3.90;;;;;;;16.56;59.07;99888.29;117275;1184;22648;-61
2021/09/24 09:14:06;;;;;;;9.60;4.30;;;;;;;16.60;58.97;99892.69;117266;1176;23534;-60
2021/09/24 09:16:35;;;;;;;5.80;3.60;;;;;;;16.62;59.13;99900.38;117301;1185;23669;-60
2021/09/24 09:19:08;;;;;;;6.40;3.80;;;;;;;16.65;59.15;99900.96;117269;1178;23566;-60
2021/09/24 09:21:58;;;;;;;4.60;3.50;;;;;;;16.70;59.14;99902.16;117341;1186;21848;-60
2021/09/24 09:24:28;;;;;;;6.30;4.10;;;;;;;16.76;59.26;99895.70;117065;1182;23531;-60
2021/09/24 09:27:19;;;;;;;8.40;4.20;;;;;;;16.85;59.23;99890.68;117320;1181;22936;-61
2021/09/24 09:30:03;;;;;;;7.00;4.20;;;;;;;16.91;59.26;99891.81;117381;1188;21869;-61
2021/09/24 09:32:32;;;;;;;6.50;4.20;;;;;;;16.96;59.28;99887.34;117293;1178;22086;-60
2021/09/24 09:35:01;;;;;;;5.60;4.10;;;;;;;16.99;59.24;99884.56;117111;1182;21943;-61
2021/09/24 09:37:29;;;;;;;5.80;3.80;;;;;;;17.01;59.17;99881.77;117294;1185;21858;-60
2021/09/24 09:40:06;;;;;;;6.30;3.90;;;;;;;17.03;59.21;99878.67;117327;1185;23643;-60
2021/09/24 09:42:35;;;;;;;5.80;4.10;;;;;;;17.05;59.19;99869.92;117345;1185;23922;-59
2021/09/24 09:45:05;;;;;;;7.30;3.80;;;;;;;17.06;59.12;99863.83;117328;1185;22160;-60
2021/09/24 09:47:34;;;;;;;7.00;4.30;;;;;;;17.08;59.18;99866.77;117312;1188;21854;-61
2021/09/24 09:50:17;;;;;;;20.80;4.50;;;;;;;17.10;59.19;99869.89;117364;1184;22906;-61
2021/09/24 09:53:03;;;;;;;5.30;3.90;;;;;;;17.12;59.11;99872.10;117326;1185;21858;-60
2021/09/24 09:55:55;;;;;;;6.00;3.30;;;;;;;17.16;59.10;99873.31;117299;1185;22902;-60
2021/09/24 09:58:26;;;;;;;5.80;4.00;;;;;;;17.17;59.02;99871.85;117411;1185;23546;-60
2021/09/24 10:00:57;;;;;;;8.30;4.70;;;;;;;17.16;59.16;99874.52;117324;1185;23177;-60
2021/09/24 10:03:47;;;;;;;10.50;4.40;;;;;;;17.18;59.19;99870.89;117337;1183;21857;-60
2021/09/24 10:06:23;;;;;;;5.90;3.80;;;;;;;17.21;59.11;99869.88;117322;1185;21865;-61
2021/09/24 10:08:57;;;;;;;7.70;3.60;;;;;;;17.18;59.30;99858.31;117254;1185;22622;-61
2021/09/24 10:11:38;;;;;;;9.60;3.20;;;;;;;17.19;59.31;99861.30;117326;1185;22841;-60
2021/09/24 10:14:10;;;;;;;8.80;3.80;;;;;;;17.20;59.29;99856.80;117338;1183;21896;-60
2021/09/24 10:16:43;;;;;;;8.30;3.50;;;;;;;17.24;59.25;99855.02;117248;1184;21876;-60
2021/09/24 10:19:13;;;;;;;10.70;3.80;;;;;;;17.29;59.36;99862.91;117322;1185;21901;-60
2021/09/24 10:21:53;;;;;;;5.70;3.80;;;;;;;17.34;59.32;99858.64;117293;1185;23566;-60
2021/09/24 10:24:22;;;;;;;15.00;5.10;;;;;;;17.36;59.31;99861.17;117303;1185;23649;-61
2021/09/24 10:26:55;;;;;;;10.90;4.70;;;;;;;17.38;59.23;99852.40;117235;1185;23447;-60
2021/09/24 10:29:29;;;;;;;7.60;3.70;;;;;;;17.40;59.25;99858.50;117349;1185;23441;-60
2021/09/24 10:32:16;;;;;;;35.30;8.10;;;;;;;17.41;59.22;99853.85;117354;1184;21874;-60
2021/09/24 10:35:09;;;;;;;16.50;5.50;;;;;;;17.43;59.21;99853.92;117377;1184;23532;-60
2021/09/24 10:37:39;;;;;;;18.60;5.10;;;;;;;17.46;59.24;99857.11;117303;1187;22996;-60
2021/09/24 10:40:20;;;;;;;6.60;3.20;;;;;;;17.47;59.24;99855.14;117398;1186;21865;-61
2021/09/24 10:42:58;;;;;;;5.40;3.20;;;;;;;17.45;59.17;99852.40;117291;1183;23643;-60
2021/09/24 10:45:41;;;;;;;8.40;4.10;;;;;;;17.40;59.13;99850.00;117276;1186;21858;-61
2021/09/24 10:48:16;;;;;;;6.00;3.70;;;;;;;17.36;59.08;99845.91;117362;1186;21855;-61
2021/09/24 10:50:54;;;;;;;7.70;3.40;;;;;;;17.32;59.09;99853.05;117282;1185;23823;-60
2021/09/24 10:53:39;;;;;;;7.40;3.70;;;;;;;17.26;59.05;99850.66;117299;1181;22919;-61
2021/09/24 10:56:08;;;;;;;5.50;3.40;;;;;;;17.21;58.99;99857.27;117191;1185;23569;-61
2021/09/24 10:58:40;;;;;;;5.90;3.40;;;;;;;17.19;58.89;99857.04;117301;1184;23633;-60
2021/09/24 11:01:15;;;;;;;8.00;3.20;;;;;;;17.17;58.84;99853.42;117319;1185;21844;-60
2021/09/24 11:03:55;;;;;;;6.90;3.50;;;;;;;17.11;58.79;99850.48;117301;1185;22628;-62
2021/09/24 11:06:40;;;;;;;5.60;3.90;;;;;;;17.06;58.90;99856.23;117348;1183;21902;-60
2021/09/24 11:09:15;;;;;;;7.30;3.10;;;;;;;17.04;58.92;99859.66;117297;1185;23567;-61
2021/09/24 11:12:00;;;;;;;8.20;3.80;;;;;;;17.04;59.00;99860.90;117326;1182;23548;-60
2021/09/24 11:15:07;;;;;;;5.80;3.70;;;;;;;16.98;58.85;99868.45;117297;1185;21854;-60
2021/09/24 11:17:44;;;;;;;7.10;3.70;;;;;;;16.91;58.82;99869.65;117344;1185;21903;-60
2021/09/24 11:20:35;;;;;;;5.90;3.70;;;;;;;16.86;58.73;99871.15;117433;1185;23465;-60
2021/09/24 11:23:30;;;;;;;8.80;4.10;;;;;;;16.81;58.72;99877.89;117340;1185;21858;-60
2021/09/24 11:26:29;;;;;;;6.20;4.30;;;;;;;16.75;58.68;99885.27;117327;1181;21866;-60
2021/09/24 11:29:11;;;;;;;9.00;4.20;;;;;;;16.67;58.71;99881.41;117287;1185;21859;-60
2021/09/24 11:32:00;;;;;;;8.20;4.50;;;;;;;16.60;58.65;99874.95;117322;1185;21866;-60
2021/09/24 11:37:06;;;;;;;8.70;5.00;;;;;;;16.52;58.70;99877.83;117211;1186;21868;-63
2021/09/24 11:39:39;;;;;;;10.30;5.20;;;;;;;16.48;58.72;99874.46;117323;1185;23547;-62
2021/09/24 11:42:12;;;;;;;7.00;4.60;;;;;;;16.44;58.64;99876.92;117281;1185;21899;-63
2021/09/24 11:44:44;;;;;;;15.00;5.60;;;;;;;16.38;58.59;99876.11;117272;1179;21859;-65
2021/09/24 11:47:16;;;;;;;9.00;4.90;;;;;;;16.36;58.75;99876.92;117287;1181;21845;-67
2021/09/24 11:50:05;;;;;;;17.40;5.50;;;;;;;16.34;58.78;99877.18;117304;1185;21859;-67